Time;durP1;ratioP1;P1;durP2;ratioP2;P2;SDS_P1;SDS_P2;PMS_P1;PMS_P2;Temp;Humidity;BMP_temperature;BMP_pressure;BME280_temperature;BME280_humidity;BME280_pressure;Samples;Min_cycle;Max_cycle;Signal;HPM_P1;HPM_P2
2022/01/30 00:02:15;;;;;;;72.70;51.95;;;;;;;;;;4954102;29;20543;-82
2022/01/30 00:04:40;;;;;;;76.20;51.73;;;;;;;;;;4962480;28;20038;-80
2022/01/30 00:07:06;;;;;;;75.40;53.87;;;;;;;;;;4350327;23;20108;-78
2022/01/30 00:09:31;;;;;;;67.90;51.47;;;;;;;;;;4972649;28;20528;-77
2022/01/30 00:12:00;;;;;;;63.93;52.53;;;;;;;;;;4986153;28;20019;-77
2022/01/30 00:14:28;;;;;;;69.85;51.30;;;;;;;;;;4991734;28;20035;-77
2022/01/30 00:17:02;;;;;;;69.72;52.97;;;;;;;;;;4985830;28;20046;-78
2022/01/30 00:19:45;;;;;;;67.53;51.97;;;;;;;;;;4969496;28;20476;-77
2022/01/30 00:22:24;;;;;;;75.88;51.80;;;;;;;;;;4967274;28;20062;-78
2022/01/30 00:24:54;;;;;;;59.33;51.47;;;;;;;;;;4975666;28;20046;-78
2022/01/30 00:27:28;;;;;;;71.97;53.33;;;;;;;;;;4970976;28;20114;-77
2022/01/30 00:29:53;;;;;;;66.15;51.30;;;;;;;;;;4965167;28;20098;-76
2022/01/30 00:32:18;;;;;;;57.00;50.00;;;;;;;;;;4974120;28;20105;-79
2022/01/30 00:34:44;;;;;;;72.10;52.43;;;;;;;;;;4973524;28;20030;-77
2022/01/30 00:37:09;;;;;;;72.63;53.60;;;;;;;;;;4955934;28;20115;-77
2022/01/30 00:39:34;;;;;;;70.15;51.67;;;;;;;;;;4982030;28;20030;-78
2022/01/30 00:41:59;;;;;;;68.03;51.00;;;;;;;;;;4977433;28;20385;-77
2022/01/30 00:44:24;;;;;;;68.40;50.93;;;;;;;;;;4959334;28;20458;-78
2022/01/30 00:46:49;;;;;;;71.88;54.03;;;;;;;;;;4969581;28;20027;-77
2022/01/30 00:49:14;;;;;;;78.27;51.63;;;;;;;;;;4959288;28;20051;-77
2022/01/30 00:51:40;;;;;;;61.33;49.83;;;;;;;;;;4967803;28;20190;-77
2022/01/30 00:54:05;;;;;;;67.87;50.63;;;;;;;;;;4961409;28;20481;-78
2022/01/30 00:56:30;;;;;;;67.83;50.47;;;;;;;;;;4956642;28;20118;-77
2022/01/30 00:58:55;;;;;;;64.13;50.20;;;;;;;;;;4963849;28;20027;-77
2022/01/30 01:01:21;;;;;;;72.63;52.17;;;;;;;;;;4976040;28;20023;-77
2022/01/30 01:03:46;;;;;;;75.40;52.40;;;;;;;;;;4968419;28;20071;-79
2022/01/30 01:06:11;;;;;;;62.73;50.83;;;;;;;;;;4977188;28;20015;-79
2022/01/30 01:08:49;;;;;;;58.53;50.77;;;;;;;;;;4964463;28;20093;-78
2022/01/30 01:14:16;;;;;;;67.85;50.50;;;;;;;;;;4965864;28;20378;-80
2022/01/30 01:24:53;;;;;;;56.92;50.67;;;;;;;;;;4975189;28;20025;-78
2022/01/30 01:27:18;;;;;;;70.53;52.90;;;;;;;;;;4966137;28;20424;-79
2022/01/30 01:29:43;;;;;;;60.57;50.03;;;;;;;;;;4972953;28;20029;-78
2022/01/30 01:32:09;;;;;;;66.03;49.13;;;;;;;;;;4969206;28;20049;-79
2022/01/30 01:34:37;;;;;;;64.17;52.23;;;;;;;;;;4957253;28;20107;-79
2022/01/30 01:37:03;;;;;;;67.50;52.00;;;;;;;;;;4967069;28;20019;-78
2022/01/30 01:39:28;;;;;;;64.35;50.08;;;;;;;;;;4968915;28;20033;-78
2022/01/30 01:41:53;;;;;;;78.43;51.60;;;;;;;;;;4979740;28;20040;-78
2022/01/30 01:44:24;;;;;;;60.80;49.50;;;;;;;;;;4973917;28;20026;-78
2022/01/30 01:46:49;;;;;;;56.13;49.92;;;;;;;;;;4965607;28;20441;-79
2022/01/30 01:49:21;;;;;;;55.70;49.03;;;;;;;;;;4970801;28;20073;-78
2022/01/30 01:51:50;;;;;;;56.80;50.47;;;;;;;;;;4969785;28;20023;-80
2022/01/30 01:54:15;;;;;;;55.90;49.13;;;;;;;;;;4958615;28;20085;-78
2022/01/30 01:56:40;;;;;;;71.23;49.93;;;;;;;;;;4957718;28;20043;-79
2022/01/30 01:59:06;;;;;;;75.40;50.30;;;;;;;;;;4970104;28;20026;-79
2022/01/30 02:01:31;;;;;;;75.87;51.93;;;;;;;;;;4980126;28;20082;-78
2022/01/30 02:03:56;;;;;;;65.93;51.67;;;;;;;;;;4988347;28;20014;-78
2022/01/30 02:06:23;;;;;;;58.13;49.57;;;;;;;;;;4987309;28;20019;-78
2022/01/30 02:08:54;;;;;;;65.65;51.78;;;;;;;;;;4964101;28;20117;-79
2022/01/30 02:26:55;;;;;;;61.57;50.20;;;;;;;;;;4980814;28;20031;-86
2022/01/30 02:29:20;;;;;;;66.03;50.60;;;;;;;;;;4963854;28;20019;-86
2022/01/30 02:31:46;;;;;;;64.40;50.78;;;;;;;;;;4979567;28;20042;-85
2022/01/30 02:34:11;;;;;;;63.20;50.28;;;;;;;;;;4979775;28;20031;-85
2022/01/30 02:36:48;;;;;;;60.43;49.63;;;;;;;;;;4977283;28;20392;-84
2022/01/30 02:39:14;;;;;;;;;;;;;;;;;;4974915;28;20029;-86
2022/01/30 02:41:39;;;;;;;55.35;48.90;;;;;;;;;;4979627;28;20013;-85
2022/01/30 02:44:25;;;;;;;54.47;48.35;;;;;;;;;;4979554;28;20249;-85
2022/01/30 02:46:53;;;;;;;58.13;50.38;;;;;;;;;;4980404;28;20023;-87
2022/01/30 02:51:51;;;;;;;56.22;49.42;;;;;;;;;;4982716;28;20033;-85
2022/01/30 02:54:16;;;;;;;63.25;49.70;;;;;;;;;;4998556;28;20030;-86
2022/01/30 02:56:42;;;;;;;53.80;48.10;;;;;;;;;;4990605;28;20019;-86
2022/01/30 02:59:08;;;;;;;68.17;50.60;;;;;;;;;;4991041;28;20031;-86
2022/01/30 03:01:33;;;;;;;60.00;48.38;;;;;;;;;;4999446;28;20019;-88
2022/01/30 03:03:59;;;;;;;57.03;49.77;;;;;;;;;;4998708;28;20079;-87
2022/01/30 03:06:24;;;;;;;54.43;48.73;;;;;;;;;;4998579;28;20006;-89
2022/01/30 03:08:49;;;;;;;63.13;49.27;;;;;;;;;;4997655;28;20026;-86
2022/01/30 03:11:14;;;;;;;63.70;50.67;;;;;;;;;;4998725;28;20011;-85
2022/01/30 03:13:39;;;;;;;69.20;50.53;;;;;;;;;;4998113;28;20102;-88
2022/01/30 03:16:05;;;;;;;68.17;50.93;;;;;;;;;;4997823;28;20007;-86
2022/01/30 03:18:31;;;;;;;67.37;50.80;;;;;;;;;;4986354;28;20038;-87
2022/01/30 03:20:56;;;;;;;64.22;51.90;;;;;;;;;;4977063;28;20078;-85
2022/01/30 03:23:21;;;;;;;57.93;50.47;;;;;;;;;;4988112;28;20038;-87
2022/01/30 03:25:53;;;;;;;67.77;50.10;;;;;;;;;;4992146;28;20026;-87
2022/01/30 03:28:18;;;;;;;60.83;50.25;;;;;;;;;;4973167;28;20022;-86
2022/01/30 03:30:44;;;;;;;66.50;51.70;;;;;;;;;;4983003;28;20018;-85
2022/01/30 03:33:10;;;;;;;63.60;51.42;;;;;;;;;;4975137;28;20428;-85
2022/01/30 03:35:35;;;;;;;58.43;50.03;;;;;;;;;;4975248;28;20038;-87
2022/01/30 03:38:00;;;;;;;71.47;52.23;;;;;;;;;;4973858;28;20030;-86
2022/01/30 03:40:25;;;;;;;65.40;50.10;;;;;;;;;;4985427;28;20030;-85
2022/01/30 03:42:50;;;;;;;63.00;50.37;;;;;;;;;;4994406;28;20042;-86
2022/01/30 03:45:15;;;;;;;58.97;49.20;;;;;;;;;;4997631;28;20025;-86
2022/01/30 03:47:41;;;;;;;62.60;49.80;;;;;;;;;;4994061;28;20053;-88
2022/01/30 03:50:06;;;;;;;66.90;51.27;;;;;;;;;;4979248;28;20000;-88
2022/01/30 03:52:31;;;;;;;57.63;50.13;;;;;;;;;;4991126;28;20030;-87
2022/01/30 03:54:57;;;;;;;56.67;50.37;;;;;;;;;;4977352;28;20018;-86
2022/01/30 03:57:22;;;;;;;81.70;52.97;;;;;;;;;;4976370;28;20101;-87
2022/01/30 03:59:47;;;;;;;58.63;51.17;;;;;;;;;;4974891;28;20042;-86
2022/01/30 04:02:12;;;;;;;75.97;51.07;;;;;;;;;;4981400;28;20023;-87
2022/01/30 04:04:37;;;;;;;63.50;50.07;;;;;;;;;;4972651;28;20023;-86
2022/01/30 04:07:03;;;;;;;75.27;52.63;;;;;;;;;;4970268;28;20022;-85
2022/01/30 04:09:28;;;;;;;55.70;49.60;;;;;;;;;;4983891;28;20033;-86
2022/01/30 04:11:54;;;;;;;64.27;50.07;;;;;;;;;;4974684;28;20023;-86
2022/01/30 04:14:20;;;;;;;63.90;50.13;;;;;;;;;;4959500;28;20078;-85
2022/01/30 04:16:45;;;;;;;63.37;50.90;;;;;;;;;;4960046;28;20486;-87
2022/01/30 04:19:10;;;;;;;68.20;51.10;;;;;;;;;;4984616;28;20068;-85
2022/01/30 04:21:36;;;;;;;60.97;50.10;;;;;;;;;;4990533;28;20026;-85
2022/01/30 04:24:01;;;;;;;64.43;52.13;;;;;;;;;;4983378;28;20038;-85
2022/01/30 04:26:26;;;;;;;67.20;51.33;;;;;;;;;;4976853;28;20016;-85
2022/01/30 04:28:52;;;;;;;61.87;52.57;;;;;;;;;;4971119;28;20039;-85
2022/01/30 04:31:17;;;;;;;61.10;50.10;;;;;;;;;;4983725;28;20077;-85
2022/01/30 04:33:42;;;;;;;63.00;51.47;;;;;;;;;;4983828;28;20086;-84
2022/01/30 04:36:12;;;;;;;68.17;51.43;;;;;;;;;;4981129;28;20110;-85
2022/01/30 04:52:50;;;;;;;75.15;51.90;;;;;;;;;;4984596;28;20041;-84
2022/01/30 04:57:55;;;;;;;64.33;51.60;;;;;;;;;;4970288;28;20031;-85
2022/01/30 05:00:36;;;;;;;71.45;51.13;;;;;;;;;;4991393;28;20058;-84
2022/01/30 05:08:03;;;;;;;59.67;51.15;;;;;;;;;;4988025;28;20508;-88
2022/01/30 05:10:28;;;;;;;61.15;49.58;;;;;;;;;;4990130;28;20050;-87
2022/01/30 05:12:56;;;;;;;64.90;51.27;;;;;;;;;;4990840;28;20022;-88
2022/01/30 05:15:22;;;;;;;67.25;50.65;;;;;;;;;;4978661;28;20029;-87
2022/01/30 05:17:47;;;;;;;64.23;50.43;;;;;;;;;;4976712;28;20105;-85
2022/01/30 05:20:13;;;;;;;54.80;48.77;;;;;;;;;;4994897;28;20466;-85
2022/01/30 05:22:38;;;;;;;57.60;51.40;;;;;;;;;;4979421;28;20308;-85
2022/01/30 05:25:04;;;;;;;64.53;49.70;;;;;;;;;;4979020;28;20122;-83
2022/01/30 05:27:29;;;;;;;69.40;50.63;;;;;;;;;;4975029;28;20373;-84
2022/01/30 05:29:55;;;;;;;70.07;50.87;;;;;;;;;;4977008;28;20038;-84
2022/01/30 05:32:20;;;;;;;56.87;48.83;;;;;;;;;;4986428;28;20050;-86
2022/01/30 05:34:45;;;;;;;70.47;51.40;;;;;;;;;;4998983;28;20031;-86
2022/01/30 05:37:11;;;;;;;68.03;52.63;;;;;;;;;;4997704;28;20022;-87
2022/01/30 05:39:36;;;;;;;68.93;50.07;;;;;;;;;;4977652;28;20065;-85
2022/01/30 05:42:02;;;;;;;64.23;50.00;;;;;;;;;;4979915;28;20023;-85
2022/01/30 05:44:41;;;;;;;55.90;49.90;;;;;;;;;;4960306;28;20027;-86
2022/01/30 05:47:10;;;;;;;63.63;50.80;;;;;;;;;;4969352;28;20404;-87
2022/01/30 05:49:36;;;;;;;64.60;50.30;;;;;;;;;;4985522;28;20034;-86
2022/01/30 05:52:02;;;;;;;55.35;48.67;;;;;;;;;;4987548;28;20027;-86
2022/01/30 05:54:27;;;;;;;60.37;49.77;;;;;;;;;;4978330;28;20037;-87
2022/01/30 05:56:52;;;;;;;68.87;50.53;;;;;;;;;;4979296;28;20497;-88
2022/01/30 05:59:18;;;;;;;70.73;51.57;;;;;;;;;;4978168;28;20023;-87
2022/01/30 06:01:43;;;;;;;61.87;52.27;;;;;;;;;;4981568;28;20023;-87
2022/01/30 06:04:08;;;;;;;66.27;51.83;;;;;;;;;;4975723;28;20019;-86
2022/01/30 06:09:19;;;;;;;58.75;50.53;;;;;;;;;;4977482;28;20067;-82
2022/01/30 06:11:50;;;;;;;59.83;49.22;;;;;;;;;;4981071;28;20458;-81
2022/01/30 06:14:17;;;;;;;58.28;49.00;;;;;;;;;;4988088;28;20027;-82
2022/01/30 06:16:42;;;;;;;62.55;51.42;;;;;;;;;;4979993;28;20034;-82
2022/01/30 06:19:07;;;;;;;57.67;50.37;;;;;;;;;;4975934;28;20087;-82
2022/01/30 06:21:32;;;;;;;60.67;49.45;;;;;;;;;;4983147;28;20045;-82
2022/01/30 06:23:58;;;;;;;67.90;49.67;;;;;;;;;;4993880;28;20030;-82
2022/01/30 06:26:23;;;;;;;58.95;49.42;;;;;;;;;;4993612;28;20054;-81
2022/01/30 06:28:49;;;;;;;62.67;50.90;;;;;;;;;;4985381;28;20054;-82
2022/01/30 06:31:15;;;;;;;60.17;49.63;;;;;;;;;;4987235;28;20110;-82
2022/01/30 06:33:40;;;;;;;62.08;50.35;;;;;;;;;;4988411;28;20030;-83
2022/01/30 06:36:05;;;;;;;68.73;49.60;;;;;;;;;;4987742;28;20030;-82
2022/01/30 06:38:30;;;;;;;55.57;49.37;;;;;;;;;;4982322;28;20035;-82
2022/01/30 06:40:56;;;;;;;57.05;48.53;;;;;;;;;;4982570;28;20475;-83
2022/01/30 06:43:21;;;;;;;53.37;47.87;;;;;;;;;;4982704;28;20071;-82
2022/01/30 06:45:48;;;;;;;56.63;50.53;;;;;;;;;;4985681;28;20016;-82
2022/01/30 06:48:13;;;;;;;;;;;;;;;;;;4981809;28;20054;-81
2022/01/30 06:50:38;;;;;;;56.20;49.25;;;;;;;;;;4982499;28;19910;-83
2022/01/30 06:53:03;;;;;;;61.38;49.67;;;;;;;;;;4988372;28;20073;-83
2022/01/30 06:55:28;;;;;;;65.50;50.63;;;;;;;;;;4989857;28;20257;-82
2022/01/30 06:57:53;;;;;;;57.13;50.70;;;;;;;;;;4985870;28;20023;-83
2022/01/30 07:00:18;;;;;;;63.03;50.40;;;;;;;;;;4986137;28;20053;-84
2022/01/30 07:02:44;;;;;;;67.83;51.47;;;;;;;;;;4988831;28;20190;-82
2022/01/30 07:05:09;;;;;;;72.30;51.83;;;;;;;;;;4988262;28;20446;-83
2022/01/30 07:07:35;;;;;;;67.80;50.80;;;;;;;;;;4987146;28;20035;-80
2022/01/30 07:10:00;;;;;;;71.83;49.33;;;;;;;;;;4981697;28;20015;-81
2022/01/30 07:12:26;;;;;;;56.03;48.83;;;;;;;;;;4979820;28;20066;-82
2022/01/30 07:14:51;;;;;;;57.42;49.35;;;;;;;;;;4988388;28;20029;-81
2022/01/30 07:17:16;;;;;;;70.82;50.05;;;;;;;;;;4980624;28;20098;-81
2022/01/30 07:19:41;;;;;;;57.15;48.95;;;;;;;;;;4979869;28;20301;-84
2022/01/30 07:22:07;;;;;;;60.33;50.23;;;;;;;;;;4978419;28;20090;-82
2022/01/30 07:24:32;;;;;;;65.78;50.85;;;;;;;;;;4985605;28;20023;-83
2022/01/30 07:26:58;;;;;;;67.37;50.47;;;;;;;;;;4983899;28;20031;-82
2022/01/30 07:29:23;;;;;;;56.63;48.40;;;;;;;;;;4982431;28;20019;-82
2022/01/30 07:31:48;;;;;;;59.28;49.15;;;;;;;;;;4987634;28;20054;-82
2022/01/30 07:34:13;;;;;;;64.10;50.93;;;;;;;;;;4991697;28;20723;-82
2022/01/30 07:36:39;;;;;;;63.83;52.67;;;;;;;;;;4991651;28;20023;-83
2022/01/30 07:39:08;;;;;;;69.00;50.55;;;;;;;;;;4985532;28;20019;-82
2022/01/30 07:41:33;;;;;;;73.63;50.13;;;;;;;;;;4979548;28;20038;-82
2022/01/30 07:44:02;;;;;;;72.53;51.37;;;;;;;;;;4989969;28;20046;-82
2022/01/30 07:46:28;;;;;;;72.78;51.92;;;;;;;;;;4990007;28;20019;-83
2022/01/30 07:48:53;;;;;;;58.47;49.25;;;;;;;;;;4983948;28;20065;-84
2022/01/30 07:51:18;;;;;;;65.40;49.50;;;;;;;;;;4988748;28;20019;-81
2022/01/30 07:53:43;;;;;;;61.33;49.53;;;;;;;;;;4993004;28;20028;-81
2022/01/30 07:56:09;;;;;;;76.65;50.67;;;;;;;;;;4991959;28;20019;-83
2022/01/30 07:58:34;;;;;;;69.60;51.30;;;;;;;;;;4990790;28;20029;-82
2022/01/30 08:00:59;;;;;;;75.20;50.20;;;;;;;;;;4985225;28;20100;-83
2022/01/30 08:03:24;;;;;;;64.97;51.20;;;;;;;;;;4990962;28;20447;-81
2022/01/30 08:05:49;;;;;;;75.87;52.47;;;;;;;;;;4993235;28;20007;-83
2022/01/30 08:08:15;;;;;;;72.40;52.50;;;;;;;;;;4989770;28;20506;-81
2022/01/30 08:10:40;;;;;;;68.37;50.90;;;;;;;;;;4982131;28;20011;-83
2022/01/30 08:13:05;;;;;;;73.68;51.63;;;;;;;;;;4982086;28;20082;-82
2022/01/30 08:15:30;;;;;;;73.70;50.67;;;;;;;;;;4991231;28;20015;-82
2022/01/30 08:17:55;;;;;;;75.10;52.83;;;;;;;;;;4980776;28;20533;-79
2022/01/30 08:20:24;;;;;;;73.73;51.83;;;;;;;;;;4993227;28;20099;-80
2022/01/30 08:22:51;;;;;;;69.95;51.97;;;;;;;;;;4992644;28;20054;-81
2022/01/30 08:25:16;;;;;;;70.25;51.92;;;;;;;;;;4995005;28;20035;-81
2022/01/30 08:27:42;;;;;;;68.80;54.13;;;;;;;;;;4978574;28;20058;-80
2022/01/30 08:30:07;;;;;;;65.60;52.67;;;;;;;;;;4992013;28;20022;-81
2022/01/30 08:32:36;;;;;;;67.40;50.77;;;;;;;;;;4994499;28;20050;-82
2022/01/30 08:35:02;;;;;;;60.88;50.75;;;;;;;;;;4990343;28;20019;-81
2022/01/30 08:37:27;;;;;;;69.30;51.85;;;;;;;;;;4986894;28;20026;-82
2022/01/30 08:39:53;;;;;;;58.45;50.22;;;;;;;;;;4984444;28;20034;-82
2022/01/30 08:42:18;;;;;;;70.93;51.50;;;;;;;;;;4989468;28;20301;-81
2022/01/30 08:44:43;;;;;;;64.10;50.90;;;;;;;;;;4993299;28;20030;-78
2022/01/30 08:47:08;;;;;;;73.83;51.63;;;;;;;;;;4994021;28;20030;-81
2022/01/30 08:49:33;;;;;;;66.53;51.15;;;;;;;;;;4989900;28;20019;-79
2022/01/30 08:51:58;;;;;;;71.63;50.92;;;;;;;;;;4985916;28;20315;-83
2022/01/30 08:54:23;;;;;;;57.35;50.22;;;;;;;;;;4980060;28;20499;-81
2022/01/30 08:56:49;;;;;;;68.83;49.70;;;;;;;;;;4983864;28;20027;-81
2022/01/30 08:59:14;;;;;;;80.70;53.07;;;;;;;;;;4979776;28;20095;-82
2022/01/30 09:01:40;;;;;;;76.67;50.83;;;;;;;;;;4987202;28;20058;-80
2022/01/30 09:04:05;;;;;;;60.17;50.20;;;;;;;;;;4990841;28;20019;-80
2022/01/30 09:06:31;;;;;;;60.40;50.03;;;;;;;;;;4990077;28;20069;-81
2022/01/30 09:08:57;;;;;;;65.93;50.33;;;;;;;;;;4987139;28;20046;-82
2022/01/30 09:11:22;;;;;;;62.63;49.50;;;;;;;;;;4984293;28;20039;-80
2022/01/30 09:13:47;;;;;;;58.78;49.50;;;;;;;;;;4982429;28;20038;-79
2022/01/30 09:16:12;;;;;;;82.67;51.47;;;;;;;;;;4984887;28;20037;-82
2022/01/30 09:18:38;;;;;;;61.43;48.87;;;;;;;;;;4985084;28;20038;-83
2022/01/30 09:21:04;;;;;;;63.28;50.03;;;;;;;;;;4984508;28;20050;-82
2022/01/30 09:23:29;;;;;;;66.93;50.70;;;;;;;;;;4985483;28;20528;-82
2022/01/30 09:25:54;;;;;;;72.93;51.50;;;;;;;;;;4987289;28;20018;-82
2022/01/30 09:28:19;;;;;;;77.63;52.63;;;;;;;;;;4981538;28;20086;-81
2022/01/30 09:30:44;;;;;;;66.57;52.30;;;;;;;;;;4980448;28;20022;-83
2022/01/30 09:33:10;;;;;;;73.20;52.07;;;;;;;;;;4984616;28;20049;-81
2022/01/30 09:35:35;;;;;;;67.20;51.03;;;;;;;;;;4990028;28;20029;-82
2022/01/30 09:38:01;;;;;;;69.97;51.28;;;;;;;;;;4992851;28;20074;-82
2022/01/30 09:40:26;;;;;;;69.47;50.42;;;;;;;;;;4996071;28;20022;-80
2022/01/30 09:42:52;;;;;;;77.57;51.47;;;;;;;;;;4998566;28;20042;-81
2022/01/30 09:45:20;;;;;;;66.22;50.97;;;;;;;;;;4996080;28;20034;-81
2022/01/30 09:47:46;;;;;;;72.65;52.70;;;;;;;;;;4996318;28;20054;-80
2022/01/30 09:50:11;;;;;;;;;;;;;;;;;;4995426;28;20014;-80
2022/01/30 09:52:37;;;;;;;82.43;54.05;;;;;;;;;;4995559;28;19902;-81
2022/01/30 09:55:04;;;;;;;72.75;52.03;;;;;;;;;;4997790;28;20027;-80
2022/01/30 09:57:29;;;;;;;80.32;53.58;;;;;;;;;;4989804;28;20011;-78
2022/01/30 09:59:57;;;;;;;78.60;53.10;;;;;;;;;;4985135;28;20054;-82
2022/01/30 10:02:26;;;;;;;70.13;52.90;;;;;;;;;;4978305;28;20038;-81
2022/01/30 10:04:51;;;;;;;67.30;52.00;;;;;;;;;;4980610;28;20026;-80
2022/01/30 10:07:19;;;;;;;78.15;53.63;;;;;;;;;;4994763;28;20082;-82
2022/01/30 10:09:47;;;;;;;78.63;54.03;;;;;;;;;;4979884;28;20031;-79
2022/01/30 10:12:19;;;;;;;70.55;53.28;;;;;;;;;;4980625;28;20042;-80
2022/01/30 10:14:47;;;;;;;63.92;50.55;;;;;;;;;;4976180;28;20043;-83
2022/01/30 10:17:23;;;;;;;88.90;55.85;;;;;;;;;;4981082;28;20023;-80
2022/01/30 10:19:50;;;;;;;82.00;54.07;;;;;;;;;;4981546;28;20023;-80
2022/01/30 10:22:15;;;;;;;78.78;51.83;;;;;;;;;;4980115;28;20058;-84
2022/01/30 10:24:40;;;;;;;76.53;53.37;;;;;;;;;;4982842;28;20007;-79
2022/01/30 10:27:19;;;;;;;80.57;53.10;;;;;;;;;;4987098;28;20086;-79
2022/01/30 10:29:44;;;;;;;70.72;52.85;;;;;;;;;;4983170;28;20034;-81
2022/01/30 10:32:10;;;;;;;86.30;53.67;;;;;;;;;;4988130;28;20027;-80
2022/01/30 10:34:37;;;;;;;89.13;55.22;;;;;;;;;;4982462;28;20079;-80
2022/01/30 10:37:16;;;;;;;92.53;56.00;;;;;;;;;;4999002;28;20054;-79
2022/01/30 10:40:01;;;;;;;66.88;52.67;;;;;;;;;;4987371;28;20086;-81
2022/01/30 10:42:35;;;;;;;71.90;51.85;;;;;;;;;;4991439;28;20046;-82
2022/01/30 10:45:01;;;;;;;73.75;51.40;;;;;;;;;;4992964;28;20034;-80
2022/01/30 10:47:26;;;;;;;73.72;52.78;;;;;;;;;;4992699;28;20030;-81
2022/01/30 10:49:51;;;;;;;63.03;51.17;;;;;;;;;;4993756;28;20042;-82
2022/01/30 10:52:17;;;;;;;68.90;50.97;;;;;;;;;;4992154;28;20027;-83
2022/01/30 10:54:42;;;;;;;72.40;50.97;;;;;;;;;;4978923;28;20514;-81
2022/01/30 10:57:09;;;;;;;72.17;52.67;;;;;;;;;;4977198;28;20062;-79
2022/01/30 10:59:38;;;;;;;70.88;52.05;;;;;;;;;;4987670;28;20041;-82
2022/01/30 11:02:11;;;;;;;72.47;52.40;;;;;;;;;;4986961;28;20035;-79
2022/01/30 11:04:36;;;;;;;72.47;53.50;;;;;;;;;;4983778;28;20015;-78
2022/01/30 11:07:02;;;;;;;71.97;51.80;;;;;;;;;;4987593;28;20122;-81
2022/01/30 11:09:36;;;;;;;74.35;52.42;;;;;;;;;;4984181;28;20094;-82
2022/01/30 11:12:04;;;;;;;73.47;52.22;;;;;;;;;;4984684;28;20022;-80
2022/01/30 11:14:37;;;;;;;69.70;52.15;;;;;;;;;;4993889;28;20057;-82
2022/01/30 11:17:03;;;;;;;63.42;51.90;;;;;;;;;;4981851;28;20022;-83
2022/01/30 11:19:34;;;;;;;71.45;51.85;;;;;;;;;;4980047;28;20050;-81
2022/01/30 11:22:01;;;;;;;70.88;51.72;;;;;;;;;;4968781;28;20029;-82
2022/01/30 11:24:26;;;;;;;66.00;50.22;;;;;;;;;;4992309;28;20062;-79
2022/01/30 11:26:52;;;;;;;62.23;52.80;;;;;;;;;;4987283;28;20035;-83
2022/01/30 11:29:20;;;;;;;70.47;52.83;;;;;;;;;;4983889;28;20023;-83
2022/01/30 11:31:45;;;;;;;64.93;51.00;;;;;;;;;;4989905;28;20078;-80
2022/01/30 11:34:10;;;;;;;64.80;51.47;;;;;;;;;;4985899;28;20015;-82
2022/01/30 11:36:43;;;;;;;72.17;51.37;;;;;;;;;;4983603;28;20483;-82
2022/01/30 11:39:12;;;;;;;64.03;52.05;;;;;;;;;;4983623;28;20033;-81
2022/01/30 11:41:37;;;;;;;65.35;51.22;;;;;;;;;;4985763;28;20046;-83
2022/01/30 11:44:18;;;;;;;64.53;51.17;;;;;;;;;;4990429;28;20019;-82
2022/01/30 11:46:56;;;;;;;70.03;51.58;;;;;;;;;;4996770;28;20043;-80
2022/01/30 11:49:21;;;;;;;66.70;51.88;;;;;;;;;;4988230;28;20042;-82
2022/01/30 11:51:47;;;;;;;65.50;51.67;;;;;;;;;;4991502;28;20111;-83
2022/01/30 11:54:31;;;;;;;73.85;52.95;;;;;;;;;;4995147;28;20019;-81
2022/01/30 11:56:57;;;;;;;68.75;52.67;;;;;;;;;;4997115;28;20011;-81
2022/01/30 11:59:36;;;;;;;65.60;50.73;;;;;;;;;;4987735;28;20030;-81
2022/01/30 12:02:20;;;;;;;58.28;51.00;;;;;;;;;;4981104;28;20019;-80
2022/01/30 12:04:56;;;;;;;69.13;52.42;;;;;;;;;;4997427;28;20019;-80
2022/01/30 12:07:33;;;;;;;87.32;55.17;;;;;;;;;;4993977;28;20444;-80
2022/01/30 12:10:17;;;;;;;59.92;51.85;;;;;;;;;;4992275;28;20027;-79
2022/01/30 12:13:02;;;;;;;68.85;52.58;;;;;;;;;;4996107;28;20507;-81
2022/01/30 12:15:33;;;;;;;68.90;53.17;;;;;;;;;;4996189;23;20051;-86
2022/01/30 12:18:00;;;;;;;63.28;51.85;;;;;;;;;;5001529;28;20030;-86
2022/01/30 12:20:29;;;;;;;62.63;50.42;;;;;;;;;;5002157;28;20019;-86
2022/01/30 12:22:54;;;;;;;67.30;50.95;;;;;;;;;;4982251;28;20030;-87
2022/01/30 12:25:29;;;;;;;63.25;51.85;;;;;;;;;;4999035;28;20095;-85
2022/01/30 12:27:56;;;;;;;73.38;52.10;;;;;;;;;;4982805;28;20034;-85
2022/01/30 12:30:30;;;;;;;77.93;52.17;;;;;;;;;;4976916;28;20024;-85
2022/01/30 12:32:56;;;;;;;74.82;52.30;;;;;;;;;;4996841;28;20019;-85
2022/01/30 12:35:21;;;;;;;66.07;52.27;;;;;;;;;;4998479;28;20475;-85
2022/01/30 12:37:46;;;;;;;66.60;51.83;;;;;;;;;;4997848;28;20478;-85
2022/01/30 12:40:11;;;;;;;70.00;53.40;;;;;;;;;;5000519;28;20022;-86
2022/01/30 12:42:37;;;;;;;69.03;52.70;;;;;;;;;;5001641;28;20027;-85
2022/01/30 12:45:04;;;;;;;79.97;55.57;;;;;;;;;;4977926;28;20074;-85
2022/01/30 12:47:29;;;;;;;75.85;53.08;;;;;;;;;;5010983;28;20240;-86
2022/01/30 12:49:58;;;;;;;70.50;52.43;;;;;;;;;;5010189;28;20026;-85
2022/01/30 12:52:36;;;;;;;67.55;52.05;;;;;;;;;;5015506;28;20019;-87
2022/01/30 12:55:08;;;;;;;70.40;52.90;;;;;;;;;;4986818;28;20018;-85
2022/01/30 12:57:34;;;;;;;67.10;51.42;;;;;;;;;;4982386;28;20038;-85
2022/01/30 13:00:00;;;;;;;66.15;52.03;;;;;;;;;;4996206;28;20106;-85
2022/01/30 13:02:28;;;;;;;69.30;52.90;;;;;;;;;;4982721;28;20046;-86
2022/01/30 13:05:04;;;;;;;64.22;50.72;;;;;;;;;;4980343;28;20461;-85
2022/01/30 13:07:29;;;;;;;61.28;52.03;;;;;;;;;;4997894;28;20019;-84
2022/01/30 13:10:12;;;;;;;56.10;49.90;;;;;;;;;;4998490;28;20183;-86
2022/01/30 13:12:38;;;;;;;68.57;51.90;;;;;;;;;;4983150;28;20094;-86
2022/01/30 13:15:14;;;;;;;63.80;51.17;;;;;;;;;;4982845;28;20110;-84
2022/01/30 13:17:39;;;;;;;68.13;51.05;;;;;;;;;;4977759;28;20032;-85
2022/01/30 13:20:05;;;;;;;65.10;50.20;;;;;;;;;;4982079;28;20026;-86
2022/01/30 13:22:36;;;;;;;78.72;51.20;;;;;;;;;;5008566;28;20023;-86
2022/01/30 13:25:04;;;;;;;61.90;49.97;;;;;;;;;;4982406;28;20026;-85
2022/01/30 13:27:29;;;;;;;57.70;50.50;;;;;;;;;;5000023;28;20018;-86
2022/01/30 13:29:55;;;;;;;63.50;52.10;;;;;;;;;;4992967;28;20026;-86
2022/01/30 13:32:21;;;;;;;58.57;51.43;;;;;;;;;;4969819;28;20069;-86
2022/01/30 13:34:47;;;;;;;66.60;51.63;;;;;;;;;;4975692;28;20380;-85
2022/01/30 13:37:16;;;;;;;61.13;51.85;;;;;;;;;;4982060;28;20026;-87
2022/01/30 13:39:49;;;;;;;57.78;50.50;;;;;;;;;;4992063;28;20483;-86
2022/01/30 13:46:56;;;;;;;61.20;50.83;;;;;;;;;;4974218;28;20034;-85
2022/01/30 13:47:57;;;;;;;68.75;50.95;;;;;;;;;;4980092;28;20015;-86
2022/01/30 13:50:32;;;;;;;56.58;50.33;;;;;;;;;;4992763;28;20030;-86
2022/01/30 13:53:01;;;;;;;61.90;51.10;;;;;;;;;;4984536;28;20019;-85
2022/01/30 13:55:27;;;;;;;67.68;52.88;;;;;;;;;;4995572;28;20078;-85
2022/01/30 13:57:56;;;;;;;60.07;50.17;;;;;;;;;;4987430;28;20023;-85
2022/01/30 14:00:21;;;;;;;59.65;51.67;;;;;;;;;;4983356;28;20023;-86
2022/01/30 14:03:00;;;;;;;60.05;50.85;;;;;;;;;;4990171;28;20098;-85
2022/01/30 14:05:27;;;;;;;63.28;51.03;;;;;;;;;;4985069;28;20023;-86
2022/01/30 14:07:53;;;;;;;64.78;50.08;;;;;;;;;;4982935;28;20090;-85
2022/01/30 14:10:21;;;;;;;63.67;49.47;;;;;;;;;;4999183;28;20019;-86
2022/01/30 14:12:46;;;;;;;60.08;51.65;;;;;;;;;;4987727;28;20084;-85
2022/01/30 14:15:12;;;;;;;64.00;53.13;;;;;;;;;;4988311;28;20113;-87
2022/01/30 14:17:41;;;;;;;58.78;50.17;;;;;;;;;;4983298;28;20034;-86
2022/01/30 14:20:09;;;;;;;58.95;50.20;;;;;;;;;;4978885;28;20414;-84
2022/01/30 14:22:35;;;;;;;62.55;51.60;;;;;;;;;;4965658;29;20111;-86
2022/01/30 14:25:00;;;;;;;;;;;;;;;;;;4974561;28;20050;-85
2022/01/30 14:27:26;;;;;;;67.80;50.50;;;;;;;;;;4988749;28;20263;-84
2022/01/30 14:29:56;;;;;;;54.50;48.43;;;;;;;;;;4991707;28;20019;-84
2022/01/30 14:32:22;;;;;;;68.03;52.38;;;;;;;;;;4998600;28;20027;-85
2022/01/30 14:34:50;;;;;;;57.58;49.33;;;;;;;;;;4981964;28;20038;-87
2022/01/30 14:37:17;;;;;;;55.47;49.75;;;;;;;;;;4979400;28;20054;-85
2022/01/30 14:39:43;;;;;;;59.85;50.63;;;;;;;;;;4973163;28;20023;-86
2022/01/30 14:42:10;;;;;;;58.43;49.83;;;;;;;;;;4984661;28;20030;-86
2022/01/30 14:44:36;;;;;;;58.13;50.05;;;;;;;;;;5002758;28;20553;-86
2022/01/30 14:47:01;;;;;;;60.83;51.42;;;;;;;;;;4991107;28;20040;-85
2022/01/30 14:49:27;;;;;;;60.77;49.20;;;;;;;;;;5009006;28;20030;-86
2022/01/30 14:51:52;;;;;;;58.10;51.07;;;;;;;;;;4987115;28;20023;-86
2022/01/30 14:54:17;;;;;;;54.47;48.63;;;;;;;;;;4987071;28;20025;-86
2022/01/30 14:56:42;;;;;;;60.50;49.90;;;;;;;;;;4980468;28;20022;-86
2022/01/30 14:59:08;;;;;;;62.40;49.63;;;;;;;;;;4992754;28;20029;-85
2022/01/30 15:01:33;;;;;;;63.10;48.83;;;;;;;;;;4977642;28;20035;-86
2022/01/30 15:03:59;;;;;;;58.10;50.60;;;;;;;;;;4986901;28;20019;-86
2022/01/30 15:06:24;;;;;;;57.10;49.00;;;;;;;;;;4991232;28;20082;-87
2022/01/30 15:08:50;;;;;;;58.83;49.97;;;;;;;;;;4992762;28;20019;-86
2022/01/30 15:11:15;;;;;;;57.37;49.63;;;;;;;;;;5008562;28;20026;-84
2022/01/30 15:13:40;;;;;;;54.67;48.87;;;;;;;;;;4995561;28;20037;-86
2022/01/30 15:16:10;;;;;;;57.47;50.53;;;;;;;;;;4995470;28;20030;-87